Stations météo

réclame
Mon MeteoGroup
Kielder Castle, Grande-Bretagne (99186): Température de l'air & dewpoint: 19.09.2018 22:00:00 - 25.09.2018 22:00:00 (BST)Kielder Castle, Grande-Bretagne (99186): Température de l'air -20cm & Température de l'air -100cm: 19.09.2018 22:00:00 - 25.09.2018 22:00:00 (BST)Kielder Castle, Grande-Bretagne (99186): Quantités de précipitations: 19.09.2018 22:00:00 - 25.09.2018 22:00:00 (BST)
Date & Time tt [°C] td [°C] tt -20cm [°C] tt -100cm [°C] rr [mm]
25.09.2018 22:00:00 - - - - -
25.09.2018 21:00:00 10,4 9,7 - - 0,6
25.09.2018 20:00:00 10,5 9,2 - - 0,0
25.09.2018 19:00:00 11,5 8,0 - - 0,0
25.09.2018 18:00:00 11,8 7,8 - - 0,0
25.09.2018 17:00:00 12,3 7,5 - - 0,0
25.09.2018 16:00:00 13,0 7,4 - - 0,0
25.09.2018 15:00:00 13,0 7,8 - - 0,0
25.09.2018 14:00:00 12,3 6,0 - - 0,0
25.09.2018 13:00:00 12,3 6,8 - - 0,0
25.09.2018 12:00:00 10,4 6,6 - - 0,0
25.09.2018 11:00:00 10,6 5,6 - - 0,0
25.09.2018 10:00:00 9,2 7,2 11,2 12,9 0,0
25.09.2018 09:00:00 4,6 4,5 - - 0,0
25.09.2018 08:00:00 2,1 2,1 - - 0,0
25.09.2018 07:00:00 0,7 0,6 - - 0,0
25.09.2018 06:00:00 1,2 1,1 - - 0,0
25.09.2018 05:00:00 1,7 1,6 - - 0,0
25.09.2018 04:00:00 1,6 1,5 - - 0,0
25.09.2018 03:00:00 1,6 1,5 - - 0,2
25.09.2018 02:00:00 1,9 1,6 - - 0,0
25.09.2018 01:00:00 2,3 1,9 - - 0,0
25.09.2018 00:00:00 3,2 2,9 - - 0,0
24.09.2018 23:00:00 3,5 3,0 - - 0,0
24.09.2018 22:00:00 4,3 3,7 - - 0,0
24.09.2018 21:00:00 5,5 4,3 - - 0,0
24.09.2018 20:00:00 8,7 5,4 - - 0,0
24.09.2018 19:00:00 9,1 5,6 - - 0,0
24.09.2018 18:00:00 10,3 6,2 - - 0,0
24.09.2018 17:00:00 11,0 5,9 - - 0,0
24.09.2018 16:00:00 11,6 5,3 - - 0,0
24.09.2018 15:00:00 11,9 5,2 - - 0,0
24.09.2018 14:00:00 11,3 6,1 - - 0,0
24.09.2018 13:00:00 10,6 5,8 - - 0,0
24.09.2018 12:00:00 11,1 5,2 - - 0,0
24.09.2018 11:00:00 10,2 5,0 - - 0,0
24.09.2018 10:00:00 7,9 7,7 11,4 13,2 0,2
24.09.2018 09:00:00 2,4 2,2 - - 0,0
24.09.2018 08:00:00 -0,7 -0,7 - - 0,0
24.09.2018 07:00:00 -0,8 -0,9 - - 0,0
24.09.2018 06:00:00 -0,8 -0,9 - - 0,0
24.09.2018 05:00:00 -0,6 -0,8 - - 0,0
24.09.2018 04:00:00 0,0 -0,3 - - 0,0
24.09.2018 03:00:00 0,9 0,6 - - 0,0
24.09.2018 02:00:00 1,4 1,1 - - 0,0
24.09.2018 01:00:00 1,8 1,4 - - 0,0
24.09.2018 00:00:00 2,4 1,6 - - 0,0
23.09.2018 23:00:00 4,5 2,4 - - 0,0
23.09.2018 22:00:00 4,5 2,8 - - 0,0
23.09.2018 21:00:00 5,4 3,6 - - 0,0
23.09.2018 20:00:00 6,0 4,2 - - 0,0
23.09.2018 19:00:00 8,2 4,4 - - 0,0
23.09.2018 18:00:00 10,4 3,4 - - 0,0
23.09.2018 17:00:00 11,7 2,8 - - 0,0
23.09.2018 16:00:00 10,7 2,7 - - 0,0
23.09.2018 15:00:00 12,4 3,5 - - 0,0
23.09.2018 14:00:00 11,1 3,3 - - 0,0
23.09.2018 13:00:00 10,4 2,3 - - 0,0
23.09.2018 12:00:00 10,5 3,6 - - 0,0
23.09.2018 11:00:00 9,8 4,5 - - 0,0
23.09.2018 10:00:00 6,9 6,7 11,9 13,2 0,0
23.09.2018 09:00:00 0,9 0,7 - - 0,0
23.09.2018 08:00:00 0,2 0,2 - - 0,0
23.09.2018 07:00:00 0,2 0,2 - - 0,0
23.09.2018 06:00:00 0,1 0,0 - - 0,0
23.09.2018 05:00:00 0,6 0,5 - - 0,0
23.09.2018 04:00:00 0,3 0,2 - - 0,0
23.09.2018 03:00:00 0,3 0,1 - - 0,0
23.09.2018 02:00:00 0,7 0,5 - - 0,0
23.09.2018 01:00:00 1,0 0,8 - - 0,0
23.09.2018 00:00:00 0,8 0,5 - - 0,0
22.09.2018 23:00:00 1,2 0,6 - - 0,0
22.09.2018 22:00:00 2,1 1,2 - - 0,0
22.09.2018 21:00:00 3,7 2,9 - - 0,0
22.09.2018 20:00:00 5,2 3,8 - - 0,0
22.09.2018 19:00:00 7,3 4,0 - - 0,0
22.09.2018 18:00:00 9,7 2,7 - - 0,0
22.09.2018 17:00:00 12,0 2,1 - - 0,0
22.09.2018 16:00:00 13,0 2,9 - - 0,0
22.09.2018 15:00:00 12,3 3,1 - - 0,0
22.09.2018 14:00:00 11,2 5,1 - - 0,0
22.09.2018 13:00:00 10,0 5,4 - - 0,0
22.09.2018 12:00:00 9,6 5,3 - - 0,0
22.09.2018 11:00:00 9,1 5,6 - - 0,0
22.09.2018 10:00:00 8,4 5,4 12,5 13,7 0,0
22.09.2018 09:00:00 7,3 5,2 - - 0,0
22.09.2018 08:00:00 5,7 4,6 - - 0,0
22.09.2018 07:00:00 5,1 3,9 - - 0,0
22.09.2018 06:00:00 6,4 3,8 - - 0,0
22.09.2018 05:00:00 6,6 4,1 - - 0,0
22.09.2018 04:00:00 6,6 4,2 - - 0,0
22.09.2018 03:00:00 6,2 4,5 - - 0,0
22.09.2018 02:00:00 6,3 4,2 - - 0,0
22.09.2018 01:00:00 6,5 4,6 - - 0,0
22.09.2018 00:00:00 6,8 4,5 - - 0,0
21.09.2018 23:00:00 7,2 5,0 - - 0,0
21.09.2018 22:00:00 7,5 5,1 - - 0,0
21.09.2018 21:00:00 8,2 5,0 - - 0,0
21.09.2018 20:00:00 8,1 4,5 - - 0,0
21.09.2018 19:00:00 9,6 5,0 - - 0,0
21.09.2018 18:00:00 10,1 6,6 - - 0,2
21.09.2018 17:00:00 10,8 5,1 - - 0,0
21.09.2018 16:00:00 12,4 5,8 - - 0,0
21.09.2018 15:00:00 10,6 5,6 - - 0,0
21.09.2018 14:00:00 9,9 5,9 - - 0,0
21.09.2018 13:00:00 11,1 7,0 - - 0,0
21.09.2018 12:00:00 11,0 6,5 - - 0,0
21.09.2018 11:00:00 9,6 6,1 - - 0,0
21.09.2018 10:00:00 8,5 6,0 12,7 13,7 0,0
21.09.2018 09:00:00 6,3 5,1 - - 0,0
21.09.2018 08:00:00 5,4 4,8 - - 0,0
21.09.2018 07:00:00 5,2 4,6 - - 0,0
21.09.2018 06:00:00 4,9 4,0 - - 0,0
21.09.2018 05:00:00 4,8 4,1 - - 1,2
21.09.2018 04:00:00 5,0 4,3 - - 5,2
21.09.2018 03:00:00 4,7 4,2 - - 5,4
21.09.2018 02:00:00 4,9 3,9 - - 3,0
21.09.2018 01:00:00 6,0 5,2 - - 1,6
21.09.2018 00:00:00 6,4 5,9 - - 3,2
20.09.2018 23:00:00 6,4 6,0 - - 4,6
20.09.2018 22:00:00 6,4 6,0 - - 2,4
20.09.2018 21:00:00 6,6 6,0 - - 2,0
20.09.2018 20:00:00 7,1 6,1 - - 0,2
20.09.2018 19:00:00 7,7 6,0 - - 0,2
20.09.2018 18:00:00 8,8 7,4 - - 0,8
20.09.2018 17:00:00 9,6 7,3 - - 0,0
20.09.2018 16:00:00 10,8 6,6 - - 0,0
20.09.2018 15:00:00 11,1 7,2 - - 0,0
20.09.2018 14:00:00 11,3 7,1 - - 0,0
20.09.2018 13:00:00 11,6 6,3 - - 0,0
20.09.2018 12:00:00 11,9 6,9 - - 0,0
20.09.2018 11:00:00 10,8 6,9 - - 0,0
20.09.2018 10:00:00 9,9 7,0 13,4 13,7 0,0
20.09.2018 09:00:00 9,3 7,1 - - 0,0
20.09.2018 08:00:00 6,7 5,9 - - 0,0
20.09.2018 07:00:00 7,0 5,7 - - 0,0
20.09.2018 06:00:00 7,7 5,8 - - 0,0
20.09.2018 05:00:00 7,6 5,9 - - 0,0
20.09.2018 04:00:00 7,8 5,8 - - 0,0
20.09.2018 03:00:00 8,0 6,0 - - 0,0
20.09.2018 02:00:00 8,4 6,7 - - 0,2
20.09.2018 01:00:00 8,2 7,0 - - 0,8
20.09.2018 00:00:00 8,1 6,6 - - 0,4
19.09.2018 23:00:00 8,8 5,2 - - 0,0
19.09.2018 22:00:00 8,9 6,0 - - 0,0

tt = Température de l'air
td = dewpoint
tt -20cm = Température de l'air -20cm
tt -100cm = Température de l'air -100cm
rr = Quantités de précipitations

stations d'obs. à proximité